sensor_id;sensor_type;location;lat;lon;timestamp;pressure;altitude;pressure_sealevel;temperature;humidity
55664;BME280;41540;57.880;12.164;2022-11-04T00:19:42;99391.16;;;7.41;100.00
55664;BME280;41540;57.880;12.164;2022-11-04T00:41:10;99412.56;;;7.38;100.00
55664;BME280;41540;57.880;12.164;2022-11-04T00:52:06;99451.63;;;7.72;100.00
55664;BME280;41540;57.880;12.164;2022-11-04T01:02:29;99441.28;;;7.68;100.00
55664;BME280;41540;57.880;12.164;2022-11-04T01:12:29;99407.50;;;7.46;100.00
55664;BME280;41540;57.880;12.164;2022-11-04T01:22:41;99402.28;;;7.38;100.00
55664;BME280;41540;57.880;12.164;2022-11-04T01:53:23;99405.78;;;7.44;100.00
55664;BME280;41540;57.880;12.164;2022-11-04T02:14:37;99378.16;;;7.33;100.00
55664;BME280;41540;57.880;12.164;2022-11-04T03:06:48;99236.84;;;6.89;100.00
55664;BME280;41540;57.880;12.164;2022-11-04T03:16:59;99263.78;;;7.17;100.00
55664;BME280;41540;57.880;12.164;2022-11-04T03:37:32;99185.22;;;6.75;100.00
55664;BME280;41540;57.880;12.164;2022-11-04T03:47:35;99291.50;;;7.40;100.00
55664;BME280;41540;57.880;12.164;2022-11-04T04:07:55;99267.25;;;7.21;100.00
55664;BME280;41540;57.880;12.164;2022-11-04T05:13:35;99286.28;;;7.37;100.00
55664;BME280;41540;57.880;12.164;2022-11-04T05:24:10;99299.25;;;7.41;100.00
55664;BME280;41540;57.880;12.164;2022-11-04T09:49:27;99142.72;;;8.60;100.00
55664;BME280;41540;57.880;12.164;2022-11-04T10:10:49;99212.59;;;9.35;100.00
55664;BME280;41540;57.880;12.164;2022-11-04T10:21:19;99213.47;;;9.57;100.00
55664;BME280;41540;57.880;12.164;2022-11-04T10:31:23;99117.84;;;9.10;100.00
55664;BME280;41540;57.880;12.164;2022-11-04T10:41:37;98900.84;;;7.71;100.00
55664;BME280;41540;57.880;12.164;2022-11-04T10:51:58;99157.47;;;9.27;100.00
55664;BME280;41540;57.880;12.164;2022-11-04T11:02:01;98985.19;;;8.23;100.00
55664;BME280;41540;57.880;12.164;2022-11-04T11:12:32;99210.91;;;9.62;100.00
55664;BME280;41540;57.880;12.164;2022-11-04T11:22:45;99161.78;;;9.50;100.00
55664;BME280;41540;57.880;12.164;2022-11-04T13:09:55;99143.69;;;9.19;100.00
55664;BME280;41540;57.880;12.164;2022-11-04T13:20:00;98794.19;;;7.31;100.00
55664;BME280;41540;57.880;12.164;2022-11-04T13:30:17;98764.13;;;7.16;100.00
55664;BME280;41540;57.880;12.164;2022-11-04T13:40:35;98908.59;;;7.93;100.00
55664;BME280;41540;57.880;12.164;2022-11-04T13:50:43;98997.25;;;8.32;100.00
55664;BME280;41540;57.880;12.164;2022-11-04T14:01:11;98843.97;;;7.17;100.00
55664;BME280;41540;57.880;12.164;2022-11-04T14:11:12;99004.91;;;8.03;100.00
55664;BME280;41540;57.880;12.164;2022-11-04T14:21:15;98842.16;;;6.96;100.00
55664;BME280;41540;57.880;12.164;2022-11-04T14:31:40;99028.19;;;8.24;100.00
55664;BME280;41540;57.880;12.164;2022-11-04T14:51:53;99169.50;;;9.04;100.00
55664;BME280;41540;57.880;12.164;2022-11-04T15:01:54;98993.69;;;7.87;100.00
55664;BME280;41540;57.880;12.164;2022-11-04T15:12:18;99180.69;;;9.10;100.00
55664;BME280;41540;57.880;12.164;2022-11-04T15:22:44;98914.47;;;7.46;100.00
55664;BME280;41540;57.880;12.164;2022-11-04T15:32:56;99141.94;;;9.01;100.00
55664;BME280;41540;57.880;12.164;2022-11-04T15:43:01;98905.97;;;7.67;100.00
55664;BME280;41540;57.880;12.164;2022-11-04T15:53:08;98924.91;;;7.73;100.00
55664;BME280;41540;57.880;12.164;2022-11-04T16:03:19;99169.50;;;9.13;100.00
55664;BME280;41540;57.880;12.164;2022-11-04T16:13:23;98965.28;;;7.82;100.00
55664;BME280;41540;57.880;12.164;2022-11-04T16:23:25;99031.63;;;8.25;100.00
55664;BME280;41540;57.880;12.164;2022-11-04T16:33:29;98949.00;;;7.91;100.00
55664;BME280;41540;57.880;12.164;2022-11-04T16:43:32;98780.25;;;6.70;100.00
55664;BME280;41540;57.880;12.164;2022-11-04T16:53:33;98945.53;;;7.79;100.00
55664;BME280;41540;57.880;12.164;2022-11-04T17:03:38;98865.44;;;7.19;100.00
55664;BME280;41540;57.880;12.164;2022-11-04T17:13:39;98873.22;;;7.30;100.00
55664;BME280;41540;57.880;12.164;2022-11-04T17:23:40;99132.47;;;8.85;100.00
55664;BME280;41540;57.880;12.164;2022-11-04T17:33:40;98851.50;;;6.77;100.00
55664;BME280;41540;57.880;12.164;2022-11-04T17:43:43;99174.63;;;8.85;100.00
55664;BME280;41540;57.880;12.164;2022-11-04T17:53:59;98954.00;;;7.43;100.00
55664;BME280;41540;57.880;12.164;2022-11-04T18:04:30;98982.41;;;7.58;100.00
55664;BME280;41540;57.880;12.164;2022-11-04T18:14:51;99197.03;;;8.94;100.00
55664;BME280;41540;57.880;12.164;2022-11-04T18:24:51;98842.09;;;6.87;100.00
55664;BME280;41540;57.880;12.164;2022-11-04T18:34:54;98848.00;;;6.66;100.00
55664;BME280;41540;57.880;12.164;2022-11-04T18:45:02;98959.97;;;7.37;100.00
55664;BME280;41540;57.880;12.164;2022-11-04T18:55:03;99017.72;;;7.86;100.00
55664;BME280;41540;57.880;12.164;2022-11-04T19:05:12;98839.53;;;6.86;100.00
55664;BME280;41540;57.880;12.164;2022-11-04T19:15:15;98877.47;;;7.20;100.00
55664;BME280;41540;57.880;12.164;2022-11-04T19:25:15;98947.19;;;7.60;100.00
55664;BME280;41540;57.880;12.164;2022-11-04T19:35:16;98845.59;;;6.97;100.00
55664;BME280;41540;57.880;12.164;2022-11-04T19:45:17;99209.13;;;9.18;100.00
55664;BME280;41540;57.880;12.164;2022-11-04T19:55:18;98880.00;;;7.13;100.00
55664;BME280;41540;57.880;12.164;2022-11-04T20:05:19;98922.97;;;7.25;100.00
55664;BME280;41540;57.880;12.164;2022-11-04T20:15:20;99061.63;;;7.99;100.00
55664;BME280;41540;57.880;12.164;2022-11-04T20:25:20;98952.22;;;7.34;100.00
55664;BME280;41540;57.880;12.164;2022-11-04T20:35:21;99071.88;;;7.83;100.00
55664;BME280;41540;57.880;12.164;2022-11-04T20:45:22;98972.72;;;7.13;100.00
55664;BME280;41540;57.880;12.164;2022-11-04T20:55:23;98919.25;;;6.72;100.00
55664;BME280;41540;57.880;12.164;2022-11-04T21:05:27;99013.19;;;7.32;100.00
55664;BME280;41540;57.880;12.164;2022-11-04T21:15:27;98962.28;;;6.94;100.00
55664;BME280;41540;57.880;12.164;2022-11-04T21:25:51;98966.53;;;6.88;100.00
55664;BME280;41540;57.880;12.164;2022-11-04T21:36:10;99077.69;;;7.48;100.00
55664;BME280;41540;57.880;12.164;2022-11-04T21:46:13;99289.84;;;8.55;100.00
55664;BME280;41540;57.880;12.164;2022-11-04T21:56:16;99180.06;;;7.69;100.00
55664;BME280;41540;57.880;12.164;2022-11-04T22:06:17;99295.63;;;8.24;100.00
55664;BME280;41540;57.880;12.164;2022-11-04T22:16:23;99025.91;;;6.14;100.00
55664;BME280;41540;57.880;12.164;2022-11-04T22:26:29;98930.28;;;5.68;100.00
55664;BME280;41540;57.880;12.164;2022-11-04T22:36:33;99051.16;;;6.51;100.00
55664;BME280;41540;57.880;12.164;2022-11-04T22:46:37;99008.72;;;6.10;100.00
55664;BME280;41540;57.880;12.164;2022-11-04T22:56:38;99012.28;;;6.23;100.00
55664;BME280;41540;57.880;12.164;2022-11-04T23:06:39;99105.59;;;6.92;100.00
55664;BME280;41540;57.880;12.164;2022-11-04T23:16:40;99272.13;;;7.85;100.00
55664;BME280;41540;57.880;12.164;2022-11-04T23:27:02;99080.31;;;6.51;100.00
55664;BME280;41540;57.880;12.164;2022-11-04T23:37:03;99011.47;;;6.24;100.00
55664;BME280;41540;57.880;12.164;2022-11-04T23:47:12;99037.50;;;6.56;100.00
55664;BME280;41540;57.880;12.164;2022-11-04T23:57:32;99065.88;;;6.64;100.00
